Airport View

Enter AWOS ICAO identifier for current METAR.

ex. KFNL

KMLI 202352Z 12004KT 10SM CLR 27/22 A3003 RMK AO2 SLP166 T02670217 10317 20267 53004

21 Sep 2019 00:58

Phone: 309-799-7096

Other Area AWOS: KDVN - KCWI - KMUT - KGBG

TAF KMLI 202320Z 2100/2124 14006KT P6SM SCT250 FM211200 18010KT 6SM BR SCT012 OVC015 PROB30 2112/2116 4SM TSRA BKN035CB FM211600 20013KT P6SM OVC016 FM212000 19012G20KT P6SM SCT020 BKN035 PROB30 2122/2124 3SM TSRA BKN025CB